Time;durP1;ratioP1;P1;durP2;ratioP2;P2;SDS_P1;SDS_P2;PMS_P1;PMS_P2;Temp;Humidity;BMP_temperature;BMP_pressure;BME280_temperature;BME280_humidity;BME280_pressure;Samples;Min_cycle;Max_cycle;Signal;HPM_P1;HPM_P2
2023/08/06 00:02:11;;;;;;;4.38;2.70;;;;;;;16.87;100.00;100260.16;5118218;28;20043;-64
2023/08/06 00:04:38;;;;;;;3.88;2.30;;;;;;;16.88;100.00;100260.97;5118638;28;20058;-64
2023/08/06 00:07:06;;;;;;;6.07;2.53;;;;;;;16.85;100.00;100267.94;5118716;28;20468;-65
2023/08/06 00:09:34;;;;;;;3.13;2.35;;;;;;;16.83;100.00;100272.94;5117860;28;20131;-65
2023/08/06 00:12:01;;;;;;;5.13;2.70;;;;;;;16.81;100.00;100267.78;5117472;28;20078;-64
2023/08/06 00:14:29;;;;;;;6.78;2.67;;;;;;;16.80;100.00;100259.84;5117823;28;20074;-63
2023/08/06 00:16:57;;;;;;;4.30;2.58;;;;;;;16.80;100.00;100265.34;5117710;28;20080;-63
2023/08/06 00:19:24;;;;;;;4.47;2.83;;;;;;;16.79;100.00;100264.53;5117473;28;20495;-65
2023/08/06 00:21:52;;;;;;;5.63;2.90;;;;;;;16.80;100.00;100248.84;5116720;28;20043;-64
2023/08/06 00:24:20;;;;;;;5.47;2.50;;;;;;;16.77;100.00;100250.25;5118162;28;20068;-64
2023/08/06 00:26:48;;;;;;;4.40;2.88;;;;;;;16.77;100.00;100253.00;5116854;28;20046;-64
2023/08/06 00:29:16;;;;;;;6.45;2.67;;;;;;;16.78;100.00;100251.91;5116682;28;20076;-64
2023/08/06 00:31:43;;;;;;;3.13;2.40;;;;;;;16.78;100.00;100240.06;5114868;28;20142;-65
2023/08/06 00:34:11;;;;;;;5.30;2.80;;;;;;;16.77;100.00;100246.72;5115579;28;20052;-65
2023/08/06 00:36:39;;;;;;;5.07;2.92;;;;;;;16.75;100.00;100252.53;5079447;28;20044;-64
2023/08/06 00:39:07;;;;;;;3.72;2.60;;;;;;;16.68;100.00;100249.44;5115403;28;20476;-65
2023/08/06 00:41:34;;;;;;;4.55;2.90;;;;;;;16.61;100.00;100247.16;5114354;28;20662;-63
2023/08/06 00:44:02;;;;;;;5.13;2.95;;;;;;;16.60;100.00;100248.31;5094279;28;20044;-64
2023/08/06 00:46:31;;;;;;;7.43;2.80;;;;;;;16.63;100.00;100233.09;5093967;28;20075;-64
2023/08/06 00:48:59;;;;;;;4.75;2.85;;;;;;;16.67;100.00;100244.25;5104807;28;20052;-64
2023/08/06 00:51:27;;;;;;;5.60;3.13;;;;;;;16.65;100.00;100241.03;5112986;28;20036;-64
2023/08/06 00:53:55;;;;;;;6.10;2.70;;;;;;;16.62;100.00;100237.00;5097096;28;20044;-66
2023/08/06 00:56:23;;;;;;;4.53;2.92;;;;;;;16.65;100.00;100238.28;5098543;28;20059;-65
2023/08/06 00:58:51;;;;;;;5.43;2.90;;;;;;;16.67;100.00;100236.00;5105435;28;20467;-66
2023/08/06 01:01:19;;;;;;;6.15;2.80;;;;;;;16.65;100.00;100238.28;5110283;28;20426;-64
2023/08/06 01:03:47;;;;;;;4.53;2.58;;;;;;;16.65;100.00;100241.84;5105306;28;20499;-63
2023/08/06 01:06:17;;;;;;;3.47;2.55;;;;;;;16.65;100.00;100241.84;5115712;28;20157;-65
2023/08/06 01:08:55;;;;;;;5.25;2.70;;;;;;;16.65;100.00;100238.28;5116288;28;20071;-64
2023/08/06 01:11:31;;;;;;;6.40;2.83;;;;;;;16.66;100.00;100242.66;5098869;28;20047;-65
2023/08/06 01:14:02;;;;;;;;;;;;;;;16.68;100.00;100238.44;5114484;28;20044;-65
2023/08/06 01:16:31;;;;;;;4.55;2.88;;;;;;;16.68;100.00;100237.66;5114490;28;19923;-65
2023/08/06 01:18:59;;;;;;;4.97;2.78;;;;;;;16.67;100.00;100239.59;5113625;28;20039;-64
2023/08/06 01:21:26;;;;;;;5.63;2.85;;;;;;;16.66;100.00;100231.66;5114485;28;20067;-64
2023/08/06 01:23:55;;;;;;;3.45;2.60;;;;;;;16.67;100.00;100233.25;5114924;28;20048;-64
2023/08/06 01:26:42;;;;;;;5.65;2.60;;;;;;;16.68;100.00;100229.38;5114395;28;20440;-63
2023/08/06 01:29:22;;;;;;;5.25;2.60;;;;;;;16.68;100.00;100234.88;5093359;28;20059;-62
2023/08/06 01:31:52;;;;;;;4.88;2.55;;;;;;;16.67;100.00;100236.84;5132692;28;20047;-62
2023/08/06 01:34:31;;;;;;;4.90;2.80;;;;;;;16.66;100.00;100237.94;5096772;28;20048;-65
2023/08/06 01:36:58;;;;;;;4.10;2.75;;;;;;;16.65;100.00;100230.03;5104543;28;20048;-65
2023/08/06 01:39:26;;;;;;;5.22;2.78;;;;;;;16.64;100.00;100233.91;5096405;28;20067;-64
2023/08/06 01:41:54;;;;;;;5.78;3.20;;;;;;;16.59;100.00;100240.38;5095357;28;20617;-61
2023/08/06 01:44:22;;;;;;;5.28;2.85;;;;;;;16.56;100.00;100227.28;5122050;28;20043;-63
2023/08/06 01:46:49;;;;;;;5.35;3.00;;;;;;;16.58;100.00;100233.28;5089675;28;20051;-63
2023/08/06 01:49:17;;;;;;;5.47;2.90;;;;;;;16.59;100.00;100226.63;5111114;28;20055;-64
2023/08/06 01:51:45;;;;;;;6.63;2.92;;;;;;;16.59;100.00;100227.44;5107495;28;20224;-64
2023/08/06 01:54:12;;;;;;;5.55;3.05;;;;;;;16.60;100.00;100228.25;5116944;28;20047;-64
2023/08/06 01:56:40;;;;;;;5.15;2.90;;;;;;;16.57;100.00;100232.47;5096741;28;20488;-66
2023/08/06 01:59:08;;;;;;;4.70;2.88;;;;;;;16.58;100.00;100230.53;5100664;28;20043;-64
2023/08/06 02:01:35;;;;;;;4.60;3.05;;;;;;;16.60;100.00;100228.25;5112731;28;20105;-65
2023/08/06 02:04:03;;;;;;;5.53;3.08;;;;;;;16.60;100.00;100236.50;5113340;28;20065;-63
2023/08/06 02:06:31;;;;;;;3.85;2.60;;;;;;;16.60;100.00;100233.75;5074902;28;20065;-64
2023/08/06 02:08:58;;;;;;;5.15;2.70;;;;;;;16.63;100.00;100238.59;5098858;28;20072;-65
2023/08/06 02:11:26;;;;;;;5.68;2.83;;;;;;;16.64;100.00;100234.72;5113156;28;20101;-65
2023/08/06 02:13:54;;;;;;;5.65;2.72;;;;;;;16.66;100.00;100237.16;5113041;28;20472;-65
2023/08/06 02:16:22;;;;;;;3.85;2.60;;;;;;;16.66;100.00;100239.91;5112829;28;20052;-66
2023/08/06 02:18:50;;;;;;;4.28;2.85;;;;;;;16.65;100.00;100235.53;5112473;28;20036;-64
2023/08/06 02:21:28;;;;;;;4.80;2.78;;;;;;;16.64;100.00;100236.66;5113333;28;20040;-65
2023/08/06 02:23:56;;;;;;;6.43;3.33;;;;;;;16.61;100.00;100236.16;5112100;28;20122;-65
2023/08/06 02:26:23;;;;;;;7.05;2.90;;;;;;;16.58;100.00;100228.56;5113663;28;20048;-65
2023/08/06 02:28:51;;;;;;;6.38;2.90;;;;;;;16.56;100.00;100233.59;5112193;28;20031;-65
2023/08/06 02:31:19;;;;;;;5.50;2.72;;;;;;;16.54;100.00;100229.53;5115132;28;20051;-65
2023/08/06 02:33:46;;;;;;;5.05;2.90;;;;;;;16.54;100.00;100222.09;5113035;28;20051;-64
2023/08/06 02:36:14;;;;;;;5.47;2.83;;;;;;;16.52;100.00;100216.09;5096443;28;20098;-65
2023/08/06 02:38:42;;;;;;;6.45;2.95;;;;;;;16.50;100.00;100218.38;5113417;28;20518;-64
2023/08/06 02:41:09;;;;;;;5.63;2.85;;;;;;;16.49;100.00;100215.94;5113451;28;20123;-66
2023/08/06 02:43:37;;;;;;;3.83;2.33;;;;;;;16.50;100.00;100215.63;5113436;28;20079;-66
2023/08/06 02:46:05;;;;;;;4.95;2.70;;;;;;;16.53;100.00;100214.19;5096119;28;20043;-66
2023/08/06 02:48:33;;;;;;;4.50;2.95;;;;;;;16.52;100.00;100220.78;5094254;28;20051;-65
2023/08/06 02:51:02;;;;;;;4.82;2.75;;;;;;;16.50;100.00;100217.56;5104756;28;20127;-61
2023/08/06 02:53:32;;;;;;;5.25;2.75;;;;;;;16.49;100.00;100207.69;5095440;28;20054;-64
2023/08/06 02:56:04;;;;;;;5.47;2.80;;;;;;;16.50;100.00;100207.38;5114628;28;20244;-65
2023/08/06 02:58:43;;;;;;;4.82;2.78;;;;;;;16.52;100.00;100212.53;5112939;28;20044;-64
2023/08/06 03:01:23;;;;;;;4.57;3.05;;;;;;;16.54;100.00;100213.03;5085442;28;20063;-65
2023/08/06 03:03:56;;;;;;;5.82;2.80;;;;;;;16.55;100.00;100214.66;5092931;28;20121;-65
2023/08/06 03:06:30;;;;;;;5.05;2.75;;;;;;;16.56;100.00;100214.34;5100887;28;20051;-66
2023/08/06 03:09:00;;;;;;;4.97;2.92;;;;;;;16.58;100.00;100208.53;5113231;28;20085;-65
2023/08/06 03:11:28;;;;;;;4.97;2.78;;;;;;;16.59;100.00;100210.13;5087763;28;20044;-65
2023/08/06 03:14:01;;;;;;;6.13;2.90;;;;;;;16.57;100.00;100201.38;5085541;28;20076;-65
2023/08/06 03:16:30;;;;;;;7.82;3.55;;;;;;;16.55;100.00;100209.16;5096168;28;20064;-64
2023/08/06 03:18:58;;;;;;;6.07;3.05;;;;;;;16.51;100.00;100220.00;5111410;28;20043;-65
2023/08/06 03:21:26;;;;;;;10.63;3.35;;;;;;;16.46;100.00;100214.66;5111606;28;20051;-65
2023/08/06 03:23:53;;;;;;;4.70;2.78;;;;;;;16.39;100.00;100217.88;5112529;28;20039;-65
2023/08/06 03:26:24;;;;;;;6.50;3.38;;;;;;;16.34;100.00;100217.22;5095404;28;20048;-65
2023/08/06 03:28:52;;;;;;;7.22;2.95;;;;;;;16.29;100.00;100212.69;5110294;28;20040;-65
2023/08/06 03:31:21;;;;;;;8.13;3.20;;;;;;;16.30;100.00;100213.50;5077635;28;20063;-65
2023/08/06 03:33:49;;;;;;;6.90;2.75;;;;;;;16.29;100.00;100217.41;5086553;28;20108;-65
2023/08/06 03:36:23;;;;;;;6.28;3.15;;;;;;;16.26;100.00;100216.09;5112826;28;20075;-66
2023/08/06 03:38:52;;;;;;;6.55;3.13;;;;;;;16.27;100.00;100214.16;5074003;28;20097;-65
2023/08/06 03:41:19;;;;;;;7.55;3.30;;;;;;;16.26;100.00;100210.59;5112610;28;20055;-63
2023/08/06 03:43:47;;;;;;;5.40;3.13;;;;;;;16.25;100.00;100214.47;5112141;28;20043;-65
2023/08/06 03:46:21;;;;;;;5.40;3.35;;;;;;;16.28;100.00;100213.00;5076666;28;20131;-66
2023/08/06 03:48:49;;;;;;;6.25;3.25;;;;;;;16.27;100.00;100212.22;5092290;28;20040;-65
2023/08/06 03:51:17;;;;;;;6.70;3.40;;;;;;;16.29;100.00;100214.66;5101245;28;20047;-65
2023/08/06 03:53:47;;;;;;;5.30;3.30;;;;;;;16.27;100.00;100209.47;5112927;28;20055;-65
2023/08/06 03:56:15;;;;;;;7.05;3.60;;;;;;;16.26;100.00;100212.50;5112432;28;20039;-64
2023/08/06 03:58:42;;;;;;;7.45;3.67;;;;;;;16.23;100.00;100207.66;5113590;28;20054;-65
2023/08/06 04:01:10;;;;;;;5.07;3.17;;;;;;;16.21;100.00;100215.41;5111824;28;20050;-66
2023/08/06 04:03:43;;;;;;;8.02;3.53;;;;;;;16.22;100.00;100217.06;5111220;28;20051;-64
2023/08/06 04:06:10;;;;;;;7.95;3.42;;;;;;;16.23;100.00;100208.47;5110883;28;20861;-64
2023/08/06 04:08:38;;;;;;;5.80;3.10;;;;;;;16.26;100.00;100212.50;5094441;28;20498;-63
2023/08/06 04:11:08;;;;;;;5.45;3.38;;;;;;;16.25;100.00;100206.22;5112788;28;20051;-65
2023/08/06 04:13:35;;;;;;;6.93;3.58;;;;;;;16.24;100.00;100214.81;5111692;28;20412;-65
2023/08/06 04:16:04;;;;;;;5.63;3.45;;;;;;;16.22;100.00;100217.84;5111185;28;20062;-64
2023/08/06 04:18:33;;;;;;;7.40;3.88;;;;;;;16.23;100.00;100216.72;5113549;28;20122;-65
2023/08/06 04:21:02;;;;;;;6.35;3.38;;;;;;;16.21;100.00;100223.66;5111822;28;20052;-64
2023/08/06 04:23:29;;;;;;;8.48;3.65;;;;;;;16.16;100.00;100219.13;5111359;28;20445;-64
2023/08/06 04:26:02;;;;;;;8.15;3.30;;;;;;;16.16;100.00;100225.47;5112015;28;20050;-65
2023/08/06 04:28:34;;;;;;;10.15;3.70;;;;;;;16.21;100.00;100229.16;5075055;28;20507;-67
2023/08/06 04:31:02;;;;;;;5.22;3.40;;;;;;;16.23;100.00;100229.66;5092167;28;20467;-66
2023/08/06 04:33:33;;;;;;;5.63;3.58;;;;;;;16.24;100.00;100231.28;5108475;28;20050;-65
2023/08/06 04:36:06;;;;;;;6.05;3.80;;;;;;;16.25;100.00;100232.91;5077312;28;20048;-65
2023/08/06 04:38:34;;;;;;;6.60;3.20;;;;;;;16.28;100.00;100237.75;5111821;28;20118;-64
2023/08/06 04:41:03;;;;;;;7.15;3.75;;;;;;;16.30;100.00;100233.53;5097289;28;20067;-64
2023/08/06 04:43:31;;;;;;;5.43;3.10;;;;;;;16.31;100.00;100237.94;5114976;28;20499;-65
2023/08/06 04:45:59;;;;;;;6.75;3.90;;;;;;;16.33;100.00;100232.09;5115666;27;20085;-65
2023/08/06 04:48:26;;;;;;;6.88;4.07;;;;;;;16.33;100.00;100234.84;5092590;28;20047;-65
2023/08/06 04:50:54;;;;;;;9.05;4.32;;;;;;;16.28;100.00;100238.56;5096409;28;20048;-65
2023/08/06 04:53:22;;;;;;;8.38;3.97;;;;;;;16.25;100.00;100238.41;5116287;28;20040;-65
2023/08/06 04:55:50;;;;;;;5.50;3.47;;;;;;;16.22;100.00;100236.31;5114705;28;20130;-65
2023/08/06 04:58:17;;;;;;;6.57;3.83;;;;;;;16.19;100.00;100241.31;5112413;28;20536;-65
2023/08/06 05:00:45;;;;;;;5.93;3.80;;;;;;;16.11;100.00;100244.81;5105894;28;20060;-63
2023/08/06 05:03:13;;;;;;;7.53;3.85;;;;;;;16.06;100.00;100247.72;5109038;28;20044;-64
2023/08/06 05:05:41;;;;;;;9.23;3.85;;;;;;;16.08;100.00;100250.97;5116301;28;20090;-64
2023/08/06 05:08:17;;;;;;;7.60;4.15;;;;;;;16.10;100.00;100243.22;5114276;28;20074;-64
2023/08/06 05:10:45;;;;;;;7.93;4.10;;;;;;;16.14;100.00;100244.22;5115253;28;20097;-65
2023/08/06 05:13:13;;;;;;;7.07;3.72;;;;;;;16.19;100.00;100246.00;5115199;27;20480;-65
2023/08/06 05:15:42;;;;;;;8.68;4.15;;;;;;;16.23;100.00;100260.69;5114179;28;20051;-66
2023/08/06 05:18:11;;;;;;;8.15;4.30;;;;;;;16.26;100.00;100254.59;5114818;28;20048;-67
2023/08/06 05:20:40;;;;;;;6.20;3.97;;;;;;;16.29;100.00;100258.63;5100042;28;20055;-63
2023/08/06 05:23:08;;;;;;;7.07;4.20;;;;;;;16.29;100.00;100262.19;5114154;28;20055;-64
2023/08/06 05:25:36;;;;;;;8.20;4.35;;;;;;;16.29;100.00;100261.38;5116198;28;20071;-64
2023/08/06 05:28:04;;;;;;;9.60;4.15;;;;;;;16.30;100.00;100262.97;5112379;28;20040;-63
2023/08/06 05:30:32;;;;;;;7.65;4.13;;;;;;;16.33;100.00;100268.66;5114174;28;20039;-63
2023/08/06 05:32:59;;;;;;;5.95;3.95;;;;;;;16.36;100.00;100270.78;5114212;28;20048;-66
2023/08/06 05:35:27;;;;;;;7.53;4.38;;;;;;;16.38;100.00;100274.00;5097743;28;20055;-63
2023/08/06 05:37:55;;;;;;;7.50;3.92;;;;;;;16.40;100.00;100273.66;5114274;28;20071;-63
2023/08/06 05:40:24;;;;;;;8.52;4.50;;;;;;;16.42;100.00;100282.41;5112338;28;20092;-64
2023/08/06 05:42:55;;;;;;;9.32;4.53;;;;;;;16.42;100.00;100282.41;5114696;28;20043;-62
2023/08/06 05:45:23;;;;;;;9.07;4.50;;;;;;;16.42;100.00;100292.63;5114355;28;20070;-63
2023/08/06 05:47:51;;;;;;;8.75;4.47;;;;;;;16.40;100.00;100291.00;5115856;28;20079;-62
2023/08/06 05:50:18;;;;;;;10.43;4.65;;;;;;;16.39;100.00;100294.06;5111558;28;20063;-66
2023/08/06 05:52:46;;;;;;;8.70;4.25;;;;;;;16.37;100.00;100301.81;5112817;28;20054;-65
2023/08/06 05:55:14;;;;;;;11.45;4.55;;;;;;;16.35;100.00;100299.38;5113825;28;20120;-66
2023/08/06 05:57:41;;;;;;;9.73;5.00;;;;;;;16.36;100.00;100302.97;5108737;28;20040;-67
2023/08/06 06:00:10;;;;;;;7.78;4.10;;;;;;;16.37;100.00;100307.31;5104866;28;20065;-64
2023/08/06 06:02:40;;;;;;;8.30;4.18;;;;;;;16.38;100.00;100303.44;5129573;28;20047;-60
2023/08/06 06:05:08;;;;;;;6.55;4.28;;;;;;;16.39;100.00;100307.81;5140985;27;20052;-68
2023/08/06 06:07:36;;;;;;;6.38;4.13;;;;;;;16.38;100.00;100315.25;5113562;28;20044;-64
2023/08/06 06:10:04;;;;;;;10.05;4.60;;;;;;;16.40;100.00;100317.66;5103855;28;20052;-60
2023/08/06 06:12:32;;;;;;;6.28;4.13;;;;;;;16.41;100.00;100322.06;5109932;28;20146;-61
2023/08/06 06:15:00;;;;;;;8.57;4.32;;;;;;;16.39;100.00;100330.63;5107815;28;20091;-61
2023/08/06 06:17:30;;;;;;;7.72;4.88;;;;;;;16.33;100.00;100329.16;5100892;28;20052;-65
2023/08/06 06:19:57;;;;;;;6.70;4.50;;;;;;;16.29;100.00;100332.84;5102728;28;20092;-67
2023/08/06 06:22:25;;;;;;;13.23;4.72;;;;;;;16.27;100.00;100335.09;5114884;28;20389;-66
2023/08/06 06:24:53;;;;;;;9.45;4.55;;;;;;;16.26;100.00;100333.47;5115224;28;20095;-67
2023/08/06 06:27:21;;;;;;;8.23;4.70;;;;;;;16.28;100.00;100342.22;5114458;28;20482;-66
2023/08/06 06:29:49;;;;;;;8.32;4.50;;;;;;;16.27;100.00;100346.09;5114919;28;20085;-65
2023/08/06 06:32:16;;;;;;;7.75;4.10;;;;;;;16.27;100.00;100346.09;5114481;28;20490;-66
2023/08/06 06:34:44;;;;;;;9.50;4.43;;;;;;;16.29;100.00;100349.34;5096677;28;20044;-67
2023/08/06 06:37:12;;;;;;;9.50;4.78;;;;;;;16.32;100.00;100354.22;5114036;28;20061;-66
2023/08/06 06:39:40;;;;;;;9.20;4.53;;;;;;;16.33;100.00;100358.56;5102807;28;20040;-66
2023/08/06 06:42:08;;;;;;;8.20;4.68;;;;;;;16.36;100.00;100357.94;5085100;28;20112;-64
2023/08/06 06:44:42;;;;;;;7.43;4.22;;;;;;;16.36;100.00;100352.44;5113261;28;20608;-66
2023/08/06 06:47:10;;;;;;;6.82;4.25;;;;;;;16.36;100.00;100358.75;5114404;28;20055;-68
2023/08/06 06:49:37;;;;;;;9.77;4.40;;;;;;;16.37;100.00;100363.13;5112398;28;20059;-63
2023/08/06 06:52:06;;;;;;;8.30;4.45;;;;;;;16.38;100.00;100364.75;5078978;28;20227;-65
2023/08/06 06:54:34;;;;;;;7.53;4.43;;;;;;;16.39;100.00;100369.09;5114451;28;20103;-65
2023/08/06 06:57:01;;;;;;;8.43;4.55;;;;;;;16.42;100.00;100366.84;5114282;28;20047;-63
2023/08/06 06:59:29;;;;;;;8.20;4.40;;;;;;;16.42;100.00;100372.34;5113640;28;20039;-66
2023/08/06 07:01:57;;;;;;;8.95;4.70;;;;;;;16.42;100.00;100370.41;5110783;28;20043;-70
2023/08/06 07:04:25;;;;;;;7.15;4.18;;;;;;;16.42;100.00;100370.41;5103291;28;20044;-65
2023/08/06 07:06:54;;;;;;;10.43;4.68;;;;;;;16.42;100.00;100370.41;5093711;28;20043;-65
2023/08/06 07:09:21;;;;;;;11.55;5.28;;;;;;;16.44;100.00;100372.84;5096889;28;20062;-66
2023/08/06 07:11:49;;;;;;;9.85;5.68;;;;;;;16.40;100.00;100375.41;5112432;28;20044;-64
2023/08/06 07:14:17;;;;;;;13.60;5.88;;;;;;;16.41;100.00;100379.81;5106686;28;20044;-66
2023/08/06 07:16:45;;;;;;;9.85;5.70;;;;;;;16.43;100.00;100376.72;5095529;28;20044;-65
2023/08/06 07:19:13;;;;;;;10.45;6.03;;;;;;;16.42;100.00;100386.91;5099549;28;20036;-68
2023/08/06 07:21:41;;;;;;;9.13;6.50;;;;;;;16.40;100.00;100383.66;5110740;28;20055;-66
2023/08/06 07:24:09;;;;;;;14.02;6.55;;;;;;;16.40;100.00;100380.91;5112683;28;20518;-66
2023/08/06 07:26:37;;;;;;;11.95;7.05;;;;;;;16.43;100.00;100388.53;5114950;28;20052;-63
2023/08/06 07:29:04;;;;;;;9.73;6.60;;;;;;;16.42;100.00;100392.41;5114170;28;20488;-65
2023/08/06 07:31:32;;;;;;;11.30;7.05;;;;;;;16.40;100.00;100395.50;5115208;28;20039;-65
2023/08/06 07:34:00;;;;;;;10.43;6.45;;;;;;;16.43;100.00;100395.97;5114498;28;20044;-64
2023/08/06 07:36:28;;;;;;;13.10;7.15;;;;;;;16.42;100.00;100403.41;5112589;28;20040;-64
2023/08/06 07:38:56;;;;;;;13.15;7.25;;;;;;;16.44;100.00;100395.66;5093523;28;20044;-64
2023/08/06 07:41:25;;;;;;;10.27;6.43;;;;;;;16.46;100.00;100393.41;5093553;28;20048;-65
2023/08/06 07:43:53;;;;;;;11.88;7.00;;;;;;;16.48;100.00;100406.84;5093503;28;20104;-62
2023/08/06 07:46:21;;;;;;;13.48;7.05;;;;;;;16.47;100.00;100408.75;5076252;28;20048;-64
2023/08/06 07:48:49;;;;;;;9.50;6.55;;;;;;;16.47;100.00;100395.00;5094120;28;20480;-64
2023/08/06 07:51:16;;;;;;;10.48;6.70;;;;;;;16.46;100.00;100404.41;5093730;28;20052;-64
2023/08/06 07:53:45;;;;;;;11.90;7.28;;;;;;;16.41;100.00;100404.53;5093968;28;20052;-64
2023/08/06 07:56:12;;;;;;;11.07;7.93;;;;;;;16.40;100.00;100406.50;5093944;28;20048;-65
2023/08/06 07:58:40;;;;;;;12.07;7.25;;;;;;;16.39;100.00;100406.78;5112587;28;20044;-64
2023/08/06 08:01:09;;;;;;;9.13;5.20;;;;;;;16.37;100.00;100407.09;5112528;28;20051;-65
2023/08/06 08:03:37;;;;;;;7.97;4.55;;;;;;;16.35;100.00;100414.84;5112756;28;20056;-64
2023/08/06 08:06:05;;;;;;;6.38;3.78;;;;;;;16.33;100.00;100406.13;5113726;28;20397;-64
2023/08/06 08:08:33;;;;;;;10.90;5.55;;;;;;;16.29;100.00;100409.84;5078599;28;20050;-65
2023/08/06 08:11:01;;;;;;;5.28;3.25;;;;;;;16.23;100.00;100411.09;5092155;28;20070;-64
2023/08/06 08:13:28;;;;;;;3.55;2.70;;;;;;;16.12;100.00;100422.34;5095829;28;20051;-63
2023/08/06 08:16:00;;;;;;;2.65;1.95;;;;;;;16.04;100.00;100431.34;5098527;28;20035;-65
2023/08/06 08:18:29;;;;;;;1.50;1.40;;;;;;;15.86;100.00;100426.88;5116365;28;20046;-65
2023/08/06 08:20:57;;;;;;;2.88;1.38;;;;;;;15.73;100.00;100436.81;5117490;28;20075;-64
2023/08/06 08:23:25;;;;;;;2.65;2.17;;;;;;;15.61;100.00;100445.59;5099861;28;20498;-65
2023/08/06 08:25:53;;;;;;;6.15;2.50;;;;;;;15.53;100.00;100454.56;5116085;28;20050;-65
2023/08/06 08:28:20;;;;;;;4.65;2.80;;;;;;;15.42;100.00;100469.66;5115876;28;20039;-65
2023/08/06 08:30:48;;;;;;;5.18;2.83;;;;;;;15.30;100.00;100465.50;5117534;28;20041;-63
2023/08/06 08:33:16;;;;;;;5.10;2.88;;;;;;;15.31;100.00;100466.31;5116199;28;20052;-65
2023/08/06 08:35:47;;;;;;;3.50;2.65;;;;;;;15.28;100.00;100470.50;5117335;28;20052;-64
2023/08/06 08:38:16;;;;;;;6.13;2.88;;;;;;;15.29;100.00;100474.84;5117508;28;20047;-64
2023/08/06 08:40:47;;;;;;;7.55;3.00;;;;;;;15.25;100.00;100495.81;5116823;28;20048;-65
2023/08/06 08:43:16;;;;;;;4.63;2.80;;;;;;;15.14;100.00;100480.69;5117257;28;20047;-65
2023/08/06 08:45:45;;;;;;;6.47;2.72;;;;;;;15.05;100.00;100485.25;5116841;28;20051;-64
2023/08/06 08:48:14;;;;;;;5.65;3.00;;;;;;;15.08;100.00;100490.97;5116065;28;20414;-64
2023/08/06 08:50:42;;;;;;;4.28;3.00;;;;;;;15.15;100.00;100485.03;5117130;28;20047;-64
2023/08/06 08:53:11;;;;;;;4.82;3.00;;;;;;;15.17;100.00;100492.97;5099535;28;20058;-64
2023/08/06 08:55:40;;;;;;;6.30;3.40;;;;;;;15.13;100.00;100487.31;5098958;28;20048;-64
2023/08/06 08:58:08;;;;;;;6.32;3.85;;;;;;;15.16;100.00;100485.88;5115473;28;20452;-65
2023/08/06 09:00:36;;;;;;;6.70;3.50;;;;;;;15.18;100.00;100487.19;5115958;28;20047;-65
2023/08/06 09:03:07;;;;;;;4.95;3.85;;;;;;;15.18;100.00;100492.69;5115903;28;20047;-65
2023/08/06 09:05:36;;;;;;;8.63;4.32;;;;;;;15.16;100.00;100505.88;5117121;28;20048;-65
2023/08/06 09:08:04;;;;;;;5.90;4.03;;;;;;;15.11;100.00;100506.81;5116530;28;20040;-65
2023/08/06 09:10:33;;;;;;;7.07;4.40;;;;;;;15.08;100.00;100503.84;5116371;28;20044;-65
2023/08/06 09:13:02;;;;;;;6.43;4.05;;;;;;;15.13;100.00;100506.50;5116626;28;20052;-65
2023/08/06 09:15:29;;;;;;;8.15;4.50;;;;;;;15.16;100.00;100511.38;5114722;28;20052;-66
2023/08/06 09:17:57;;;;;;;10.73;4.38;;;;;;;15.20;100.00;100514.31;5114921;28;20395;-66
2023/08/06 09:20:25;;;;;;;8.15;4.00;;;;;;;15.23;100.00;100517.25;5115188;28;20234;-65
2023/08/06 09:22:53;;;;;;;6.30;3.47;;;;;;;15.22;100.00;100510.13;5116424;28;20479;-65
2023/08/06 09:25:26;;;;;;;6.28;4.00;;;;;;;15.21;100.00;100514.00;5115435;28;20044;-65
2023/08/06 09:27:54;;;;;;;7.97;4.03;;;;;;;15.21;100.00;100514.00;5114955;28;20047;-65
2023/08/06 09:30:37;;;;;;;6.13;3.28;;;;;;;15.21;100.00;100530.47;5115710;28;20052;-65
2023/08/06 09:33:12;;;;;;;7.72;3.20;;;;;;;15.23;100.00;100520.00;5099018;28;20051;-64
2023/08/06 09:35:40;;;;;;;8.77;3.80;;;;;;;15.27;100.00;100537.50;5115810;28;20154;-64
2023/08/06 09:38:10;;;;;;;7.05;3.55;;;;;;;15.27;100.00;100537.50;5115964;28;20389;-65
2023/08/06 09:40:40;;;;;;;4.70;3.20;;;;;;;15.26;100.00;100533.09;5114397;28;20048;-64
2023/08/06 09:43:08;;;;;;;8.50;3.30;;;;;;;15.30;100.00;100531.38;5114587;28;20116;-64
2023/08/06 09:45:38;;;;;;;9.15;3.40;;;;;;;15.28;100.00;100541.84;5115278;28;20048;-66
2023/08/06 09:48:08;;;;;;;5.60;2.88;;;;;;;15.28;100.00;100539.13;5114507;28;20054;-65
2023/08/06 09:50:37;;;;;;;6.15;2.88;;;;;;;15.32;100.00;100537.38;5114565;28;20054;-66
2023/08/06 09:53:07;;;;;;;5.40;3.20;;;;;;;15.32;100.00;100537.38;5114423;28;20050;-65
2023/08/06 09:55:35;;;;;;;7.80;3.50;;;;;;;15.32;100.00;100545.63;5114067;28;20051;-65
2023/08/06 09:58:04;;;;;;;4.95;2.78;;;;;;;15.30;100.00;100555.28;5115775;28;20040;-65
2023/08/06 10:00:34;;;;;;;5.97;3.08;;;;;;;15.29;100.00;100556.38;5097118;28;20100;-65
2023/08/06 10:03:07;;;;;;;10.02;3.15;;;;;;;15.24;100.00;100548.25;5114744;28;20487;-64
2023/08/06 10:05:35;;;;;;;6.40;3.13;;;;;;;15.25;100.00;100553.47;5115144;28;20056;-65
2023/08/06 10:08:04;;;;;;;5.97;3.13;;;;;;;15.26;100.00;100548.78;5097371;28;20047;-66
2023/08/06 10:10:32;;;;;;;8.35;3.03;;;;;;;15.21;100.00;100546.94;5114694;28;20429;-66
2023/08/06 10:13:01;;;;;;;6.88;2.92;;;;;;;15.23;100.00;100560.38;5115493;28;20069;-65
2023/08/06 10:15:31;;;;;;;7.70;3.40;;;;;;;15.26;100.00;100555.06;5097729;28;20468;-65
2023/08/06 10:18:00;;;;;;;8.57;3.15;;;;;;;15.26;100.00;100549.56;5101633;28;20043;-66
2023/08/06 10:20:36;;;;;;;11.48;3.45;;;;;;;15.27;100.00;100553.97;5094887;28;20061;-65
2023/08/06 10:23:07;;;;;;;6.68;3.42;;;;;;;15.28;100.00;100552.84;5098816;28;20050;-64
2023/08/06 10:25:40;;;;;;;6.78;2.97;;;;;;;15.28;100.00;100555.59;5110713;28;20103;-61
2023/08/06 10:28:15;;;;;;;8.10;3.50;;;;;;;15.28;100.00;100547.34;5125581;28;20118;-63
2023/08/06 10:30:45;;;;;;;5.27;2.87;;;;;;;15.26;100.00;100557.81;5130270;28;20132;-63
2023/08/06 10:33:13;;;;;;;7.32;3.13;;;;;;;15.27;100.00;100550.38;5129763;28;20317;-62
2023/08/06 10:35:49;;;;;;;9.18;3.60;;;;;;;15.29;100.00;100559.94;5125066;28;20117;-62
2023/08/06 10:38:21;;;;;;;7.15;3.15;;;;;;;15.30;100.00;100556.09;5124542;28;20135;-64
2023/08/06 10:40:54;;;;;;;12.60;3.28;;;;;;;15.34;100.00;100556.28;5129745;28;20122;-64
2023/08/06 10:43:32;;;;;;;6.20;3.25;;;;;;;15.37;100.00;100560.34;5129765;28;20067;-64
2023/08/06 10:46:01;;;;;;;6.65;3.20;;;;;;;15.37;100.00;100565.84;5116990;28;20051;-64
2023/08/06 10:48:40;;;;;;;7.50;3.10;;;;;;;15.36;100.00;100564.22;5113457;28;20043;-65
2023/08/06 10:51:12;;;;;;;7.35;3.63;;;;;;;15.34;100.00;100562.59;5113494;28;20048;-65
2023/08/06 10:53:48;;;;;;;7.75;2.92;;;;;;;15.32;100.00;100564.84;5114460;28;20043;-65
2023/08/06 10:56:23;;;;;;;7.55;3.53;;;;;;;15.30;100.00;100572.56;5112985;28;20474;-65
2023/08/06 10:58:58;;;;;;;9.18;3.33;;;;;;;15.29;100.00;100578.34;5112792;28;20051;-64
2023/08/06 11:01:30;;;;;;;9.05;3.10;;;;;;;15.30;100.00;100571.75;5113113;28;20040;-65
2023/08/06 11:04:02;;;;;;;8.68;3.20;;;;;;;15.30;100.00;100585.47;5114193;28;20047;-65
2023/08/06 11:06:31;;;;;;;11.05;3.45;;;;;;;15.30;100.00;100582.75;5112856;28;20120;-65
2023/08/06 11:08:59;;;;;;;8.63;3.20;;;;;;;15.30;100.00;100591.78;5114129;28;20399;-66
2023/08/06 11:11:27;;;;;;;5.32;2.90;;;;;;;15.33;100.00;100585.66;5114515;28;20043;-64
2023/08/06 11:13:54;;;;;;;5.60;3.20;;;;;;;15.36;100.00;100592.47;5112984;28;20039;-64
2023/08/06 11:16:26;;;;;;;5.60;3.00;;;;;;;15.37;100.00;100596.88;5113020;28;20058;-65
2023/08/06 11:18:56;;;;;;;6.18;3.20;;;;;;;15.38;100.00;100601.22;5112954;28;20056;-65
2023/08/06 11:21:25;;;;;;;7.55;3.30;;;;;;;15.41;100.00;100599.81;5096528;28;20096;-65
2023/08/06 11:23:53;;;;;;;6.75;3.00;;;;;;;15.41;100.00;100605.28;5096289;28;20058;-64
2023/08/06 11:26:23;;;;;;;7.50;3.72;;;;;;;15.38;100.00;100605.91;5113654;28;20051;-65